createdAt,value
2023-01-02T00:01:59.306Z,99.90
2023-01-02T00:04:25.997Z,99.90
2023-01-02T00:06:52.626Z,99.90
2023-01-02T00:09:19.936Z,99.90
2023-01-02T00:11:46.580Z,99.90
2023-01-02T00:14:13.318Z,99.90
2023-01-02T00:16:40.044Z,99.90
2023-01-02T00:19:08.717Z,99.90
2023-01-02T00:21:36.332Z,99.90
2023-01-02T00:24:03.025Z,99.90
2023-01-02T00:26:30.104Z,99.90
2023-01-02T00:28:56.796Z,99.90
2023-01-02T00:31:23.933Z,99.90
2023-01-02T00:33:50.817Z,99.90
2023-01-02T00:36:17.550Z,99.90
2023-01-02T00:38:44.446Z,99.90
2023-01-02T00:41:11.390Z,99.90
2023-01-02T00:43:38.258Z,99.90
2023-01-02T00:46:11.113Z,99.90
2023-01-02T00:48:39.470Z,99.90
2023-01-02T00:51:06.220Z,99.90
2023-01-02T00:53:33.124Z,99.90
2023-01-02T00:55:59.815Z,99.90
2023-01-02T00:58:27.077Z,99.90
2023-01-02T01:00:54.055Z,99.90
2023-01-02T01:03:21.139Z,99.90
2023-01-02T01:05:47.814Z,99.90
2023-01-02T01:08:14.555Z,99.90
2023-01-02T01:10:41.238Z,99.90
2023-01-02T01:13:08.048Z,99.90
2023-01-02T01:15:34.739Z,99.90
2023-01-02T01:18:01.437Z,99.90
2023-01-02T01:20:28.269Z,99.90
2023-01-02T01:22:54.954Z,99.90
2023-01-02T01:25:21.685Z,99.90
2023-01-02T01:27:48.416Z,99.90
2023-01-02T01:30:15.097Z,99.90
2023-01-02T01:32:41.732Z,99.90
2023-01-02T01:35:08.425Z,99.90
2023-01-02T01:37:35.055Z,99.90
2023-01-02T01:40:01.795Z,99.90
2023-01-02T01:42:35.018Z,99.90
2023-01-02T01:45:02.169Z,99.90
2023-01-02T01:47:37.082Z,99.90
2023-01-02T01:50:16.086Z,99.90
2023-01-02T01:52:54.560Z,99.90
2023-01-02T01:55:24.033Z,99.90
2023-01-02T01:58:02.770Z,99.90
2023-01-02T02:00:29.600Z,99.90
2023-01-02T02:02:58.159Z,99.90
2023-01-02T02:05:26.515Z,99.90
2023-01-02T02:08:02.436Z,99.90
2023-01-02T02:10:29.074Z,99.90
2023-01-02T02:12:55.979Z,99.90
2023-01-02T02:15:27.257Z,99.90
2023-01-02T02:17:59.749Z,99.90
2023-01-02T02:20:29.148Z,99.90
2023-01-02T02:22:55.793Z,99.90
2023-01-02T02:25:22.427Z,99.90
2023-01-02T02:28:16.222Z,99.90
2023-01-02T02:30:54.995Z,99.90
2023-01-02T02:33:34.359Z,99.90
2023-01-02T02:36:11.887Z,99.90
2023-01-02T02:38:53.505Z,99.90
2023-01-02T02:41:20.138Z,99.90
2023-01-02T02:44:05.156Z,99.90
2023-01-02T02:46:34.816Z,99.90
2023-01-02T02:49:01.443Z,99.90
2023-01-02T02:51:50.242Z,99.90
2023-01-02T02:54:20.586Z,99.90
2023-01-02T02:56:48.319Z,99.90
2023-01-02T02:59:14.974Z,99.90
2023-01-02T03:01:41.884Z,99.90
2023-01-02T03:04:18.819Z,99.90
2023-01-02T03:07:03.402Z,99.90
2023-01-02T03:09:38.564Z,99.90
2023-01-02T03:12:08.298Z,99.90
2023-01-02T03:14:42.640Z,99.90
2023-01-02T03:17:16.358Z,99.90
2023-01-02T03:19:45.629Z,99.90
2023-01-02T03:22:15.050Z,99.90
2023-01-02T03:24:42.354Z,99.90
2023-01-02T03:27:11.314Z,99.90
2023-01-02T03:29:46.603Z,99.90
2023-01-02T03:32:15.633Z,99.90
2023-01-02T03:34:43.990Z,99.90
2023-01-02T03:37:12.590Z,99.90
2023-01-02T03:39:45.841Z,99.90
2023-01-02T03:42:14.188Z,99.90
2023-01-02T03:44:44.422Z,99.90
2023-01-02T03:47:20.712Z,99.90
2023-01-02T03:49:50.487Z,99.90
2023-01-02T03:52:22.601Z,99.90
2023-01-02T03:54:53.021Z,99.90
2023-01-02T03:57:19.797Z,99.90
2023-01-02T03:59:55.673Z,99.90
2023-01-02T04:02:33.904Z,99.90
2023-01-02T04:05:07.193Z,99.90
2023-01-02T04:07:37.065Z,99.90
2023-01-02T04:10:04.607Z,99.90
2023-01-02T04:12:33.100Z,99.90
2023-01-02T04:15:01.978Z,99.90
2023-01-02T04:17:31.261Z,99.90
2023-01-02T04:20:03.107Z,99.90
2023-01-02T04:22:31.847Z,99.90
2023-01-02T04:25:05.983Z,99.90
2023-01-02T04:27:35.082Z,99.90
2023-01-02T04:30:01.880Z,99.90
2023-01-02T04:32:32.608Z,99.90
2023-01-02T04:35:00.246Z,99.90
2023-01-02T04:37:32.445Z,99.90
2023-01-02T04:40:00.758Z,99.90
2023-01-02T04:42:27.504Z,99.90
2023-01-02T04:44:54.163Z,99.90
2023-01-02T04:47:22.072Z,99.90
2023-01-02T04:49:48.738Z,99.90
2023-01-02T04:52:15.449Z,99.90
2023-01-02T04:54:42.313Z,99.90
2023-01-02T04:57:09.040Z,99.90
2023-01-02T04:59:35.762Z,99.90
2023-01-02T05:02:02.542Z,99.90
2023-01-02T05:04:29.220Z,99.90
2023-01-02T05:06:55.830Z,99.90
2023-01-02T05:09:22.500Z,99.90
2023-01-02T05:11:49.247Z,99.90
2023-01-02T05:14:15.907Z,99.90
2023-01-02T05:16:42.541Z,99.90
2023-01-02T05:19:09.201Z,99.90
2023-01-02T05:21:54.769Z,99.90
2023-01-02T05:24:21.411Z,99.90
2023-01-02T05:26:48.235Z,99.90
2023-01-02T05:29:14.891Z,99.90
2023-01-02T05:31:41.561Z,99.90
2023-01-02T05:34:10.945Z,99.90
2023-01-02T05:36:37.550Z,99.90
2023-01-02T05:39:07.531Z,99.90
2023-01-02T05:41:34.225Z,99.90
2023-01-02T05:44:01.218Z,99.90
2023-01-02T05:46:27.904Z,99.90
2023-01-02T05:48:54.535Z,99.90
2023-01-02T05:51:21.200Z,99.90
2023-01-02T05:53:47.893Z,99.90
2023-01-02T05:56:16.051Z,99.90
2023-01-02T05:58:44.294Z,99.90
2023-01-02T06:01:18.320Z,99.90
2023-01-02T06:03:49.488Z,99.90
2023-01-02T06:06:17.262Z,99.90
2023-01-02T06:08:43.954Z,99.90
2023-01-02T06:11:10.631Z,99.90
2023-01-02T06:13:37.917Z,99.90
2023-01-02T06:16:05.268Z,99.90
2023-01-02T06:18:33.167Z,99.90
2023-01-02T06:21:00.373Z,99.90
2023-01-02T06:23:27.094Z,99.90
2023-01-02T06:25:53.887Z,99.90
2023-01-02T06:28:20.535Z,99.90
2023-01-02T06:30:47.209Z,99.90
2023-01-02T06:33:13.867Z,99.90
2023-01-02T06:35:40.520Z,99.90
2023-01-02T06:38:07.121Z,99.90
2023-01-02T06:40:33.764Z,99.90
2023-01-02T06:43:00.559Z,99.90
2023-01-02T06:45:27.324Z,99.90
2023-01-02T06:47:57.968Z,99.90
2023-01-02T06:50:32.830Z,99.90
2023-01-02T06:53:01.419Z,99.90
2023-01-02T06:55:28.097Z,99.90
2023-01-02T06:57:54.744Z,99.90
2023-01-02T07:00:21.457Z,99.90
2023-01-02T07:02:48.277Z,99.90
2023-01-02T07:05:18.513Z,99.90
2023-01-02T07:07:49.433Z,99.90
2023-01-02T07:10:16.183Z,99.90
2023-01-02T07:12:42.820Z,99.90
2023-01-02T07:15:09.696Z,99.90
2023-01-02T07:17:36.356Z,99.90
2023-01-02T07:20:03.666Z,99.90
2023-01-02T07:22:30.357Z,99.90
2023-01-02T07:24:57.199Z,99.90
2023-01-02T07:27:23.871Z,99.90
2023-01-02T07:29:50.507Z,99.90
2023-01-02T07:32:19.820Z,99.90
2023-01-02T07:34:49.361Z,99.90
2023-01-02T07:37:15.948Z,99.90
2023-01-02T07:39:42.667Z,99.90
2023-01-02T07:42:09.296Z,99.90
2023-01-02T07:44:35.978Z,99.90
2023-01-02T07:47:02.582Z,99.90
2023-01-02T07:49:29.789Z,99.90
2023-01-02T07:51:56.422Z,99.90
2023-01-02T07:54:23.115Z,99.90
2023-01-02T07:56:49.737Z,99.90
2023-01-02T07:59:16.425Z,99.90
2023-01-02T08:01:43.103Z,99.90
2023-01-02T08:04:09.833Z,99.90
2023-01-02T08:06:39.060Z,99.90
2023-01-02T08:09:05.708Z,99.90
2023-01-02T08:11:32.429Z,99.90
2023-01-02T08:13:59.316Z,99.90
2023-01-02T08:16:26.095Z,99.90
2023-01-02T08:18:54.668Z,99.90
2023-01-02T08:21:25.224Z,99.90
2023-01-02T08:23:52.414Z,99.90
2023-01-02T08:26:20.577Z,99.90
2023-01-02T08:28:47.299Z,99.90
2023-01-02T08:31:15.692Z,99.90
2023-01-02T08:33:42.701Z,99.90
2023-01-02T08:36:09.916Z,99.90
2023-01-02T08:38:36.674Z,99.90
2023-01-02T08:41:03.651Z,99.90
2023-01-02T08:43:32.670Z,99.90
2023-01-02T08:46:02.207Z,99.90
2023-01-02T08:48:28.959Z,99.90
2023-01-02T08:50:55.579Z,99.90
2023-01-02T08:53:22.268Z,99.90
2023-01-02T08:55:48.917Z,99.90
2023-01-02T08:58:15.604Z,99.90
2023-01-02T09:00:42.353Z,99.90
2023-01-02T09:03:09.057Z,99.90
2023-01-02T09:05:35.941Z,99.90
2023-01-02T09:08:02.644Z,99.90
2023-01-02T09:10:29.456Z,99.90
2023-01-02T09:12:56.131Z,99.90
2023-01-02T09:15:22.878Z,99.90
2023-01-02T09:17:49.541Z,99.90
2023-01-02T09:20:16.374Z,99.90
2023-01-02T09:22:44.649Z,99.90
2023-01-02T09:25:12.201Z,99.90
2023-01-02T09:27:38.908Z,99.90
2023-01-02T09:30:05.781Z,99.90
2023-01-02T09:32:32.489Z,99.90
2023-01-02T09:34:59.242Z,99.90
2023-01-02T09:37:25.889Z,99.90
2023-01-02T09:39:52.720Z,99.90
2023-01-02T09:42:20.143Z,99.90
2023-01-02T09:44:52.480Z,99.90
2023-01-02T09:47:24.787Z,99.90
2023-01-02T09:49:52.935Z,99.90
2023-01-02T09:52:19.808Z,99.90
2023-01-02T09:54:46.721Z,99.90
2023-01-02T09:57:28.826Z,99.10
2023-01-02T09:59:55.443Z,97.70
2023-01-02T10:02:25.384Z,96.30
2023-01-02T10:04:55.226Z,93.80
2023-01-02T10:07:39.109Z,91.30
2023-01-02T10:10:29.008Z,87.70
2023-01-02T10:12:55.799Z,85.80
2023-01-02T10:15:29.245Z,88.10
2023-01-02T10:18:03.598Z,89.70
2023-01-02T10:20:35.581Z,89.30
2023-01-02T10:23:23.014Z,88.70
2023-01-02T10:25:53.016Z,87.60
2023-01-02T10:28:38.774Z,86.70
2023-01-02T10:31:08.600Z,86.10
2023-01-02T10:33:41.311Z,85.80
2023-01-02T10:36:13.970Z,87.90
2023-01-02T10:38:40.684Z,89.00
2023-01-02T10:41:08.613Z,90.90
2023-01-02T10:43:37.103Z,90.90
2023-01-02T10:46:04.501Z,90.80
2023-01-02T10:48:33.196Z,91.10
2023-01-02T10:51:05.970Z,92.30
2023-01-02T10:53:34.215Z,92.50
2023-01-02T10:56:01.336Z,92.40
2023-01-02T10:58:29.079Z,92.70
2023-01-02T11:01:18.334Z,93.00
2023-01-02T11:03:46.040Z,93.20
2023-01-02T11:06:29.027Z,93.30
2023-01-02T11:08:57.338Z,93.60
2023-01-02T11:11:25.015Z,93.60
2023-01-02T11:13:54.571Z,93.40
2023-01-02T11:16:22.985Z,93.30
2023-01-02T11:18:54.321Z,93.60
2023-01-02T11:21:25.610Z,93.60
2023-01-02T11:23:56.945Z,93.10
2023-01-02T11:26:25.016Z,93.10
2023-01-02T11:28:52.595Z,93.50
2023-01-02T11:31:19.587Z,93.90
2023-01-02T11:33:46.876Z,93.60
2023-01-02T11:36:13.781Z,93.90
2023-01-02T11:38:45.720Z,94.20
2023-01-02T11:41:21.595Z,93.90
2023-01-02T11:43:54.141Z,94.10
2023-01-02T11:46:27.772Z,94.20
2023-01-02T11:48:58.146Z,94.30
2023-01-02T11:51:25.589Z,94.20
2023-01-02T11:53:53.661Z,93.70
2023-01-02T11:56:32.442Z,93.30
2023-01-02T11:59:02.377Z,93.50
2023-01-02T12:01:39.363Z,93.20
2023-01-02T12:04:06.345Z,93.70
2023-01-02T12:06:39.144Z,93.70
2023-01-02T12:09:09.137Z,93.60
2023-01-02T12:11:44.156Z,94.20
2023-01-02T12:14:15.301Z,93.90
2023-01-02T12:17:00.838Z,93.90
2023-01-02T12:19:30.605Z,94.30
2023-01-02T12:21:57.211Z,94.00
2023-01-02T12:24:35.610Z,94.10
2023-01-02T12:27:08.116Z,94.30
2023-01-02T12:29:46.147Z,94.40
2023-01-02T12:32:18.306Z,94.80
2023-01-02T12:34:51.152Z,94.90
2023-01-02T12:37:36.607Z,95.30
2023-01-02T12:40:09.527Z,95.10
2023-01-02T12:42:39.339Z,95.40
2023-01-02T12:45:11.361Z,95.50
2023-01-02T12:47:44.067Z,95.60
2023-01-02T12:50:21.303Z,96.00
2023-01-02T12:53:11.839Z,96.30
2023-01-02T12:55:46.038Z,96.50
2023-01-02T12:58:31.528Z,97.00
2023-01-02T13:01:00.344Z,97.60
2023-01-02T13:03:33.219Z,98.40
2023-01-02T13:06:05.907Z,99.10
2023-01-02T13:08:38.366Z,99.70
2023-01-02T13:11:05.742Z,99.90
2023-01-02T13:13:34.920Z,99.90
2023-01-02T13:16:11.275Z,99.90
2023-01-02T13:19:00.329Z,99.90
2023-01-02T13:21:37.106Z,99.90
2023-01-02T13:24:03.908Z,99.90
2023-01-02T13:26:31.268Z,99.90
2023-01-02T13:29:10.239Z,99.90
2023-01-02T13:31:47.441Z,99.90
2023-01-02T13:34:16.369Z,99.90
2023-01-02T13:36:49.705Z,99.90
2023-01-02T13:39:21.604Z,99.90
2023-01-02T13:42:09.712Z,99.90
2023-01-02T13:44:39.002Z,99.90
2023-01-02T13:47:16.377Z,99.90
2023-01-02T13:49:49.143Z,99.90
2023-01-02T13:52:18.687Z,99.90
2023-01-02T13:55:05.995Z,99.90
2023-01-02T13:57:32.905Z,99.90
2023-01-02T14:00:25.726Z,99.90
2023-01-02T14:03:10.884Z,99.90
2023-01-02T14:05:57.336Z,99.90
2023-01-02T14:08:25.053Z,99.90
2023-01-02T14:10:54.031Z,99.90
2023-01-02T14:13:27.848Z,99.90
2023-01-02T14:16:01.645Z,99.90
2023-01-02T14:18:30.693Z,99.90
2023-01-02T14:20:57.651Z,99.90
2023-01-02T14:23:33.705Z,99.90
2023-01-02T14:26:00.452Z,99.90
2023-01-02T14:28:28.988Z,99.90
2023-01-02T14:30:56.234Z,99.90
2023-01-02T14:33:36.192Z,99.90
2023-01-02T14:36:06.471Z,99.90
2023-01-02T14:38:37.249Z,99.90
2023-01-02T14:41:22.729Z,99.90
2023-01-02T14:43:49.392Z,99.90
2023-01-02T14:46:21.223Z,99.90
2023-01-02T14:49:25.665Z,99.90
2023-01-02T14:51:59.612Z,99.90
2023-01-02T14:54:29.876Z,99.90
2023-01-02T14:56:59.115Z,99.90
2023-01-02T14:59:28.414Z,99.90
2023-01-02T15:01:57.875Z,99.90
2023-01-02T15:04:27.319Z,99.90
2023-01-02T15:07:09.805Z,99.90
2023-01-02T15:09:39.467Z,99.90
2023-01-02T15:12:36.955Z,99.90
2023-01-02T15:15:03.756Z,99.90
2023-01-02T15:17:30.749Z,99.90
2023-01-02T15:20:00.664Z,99.90
2023-01-02T15:22:28.992Z,99.90
2023-01-02T15:24:55.806Z,99.90
2023-01-02T15:27:22.623Z,99.90
2023-01-02T15:29:51.076Z,99.90
2023-01-02T15:32:36.168Z,99.90
2023-01-02T15:35:10.272Z,99.90
2023-01-02T15:37:41.767Z,99.90
2023-01-02T15:40:14.894Z,99.90
2023-01-02T15:43:00.543Z,99.90
2023-01-02T15:45:27.551Z,99.90
2023-01-02T15:47:54.288Z,99.90
2023-01-02T15:50:22.344Z,99.90
2023-01-02T15:52:52.586Z,99.90
2023-01-02T15:55:20.042Z,99.90
2023-01-02T15:57:49.819Z,99.90
2023-01-02T16:00:36.848Z,99.90
2023-01-02T16:03:04.231Z,99.90
2023-01-02T16:05:43.105Z,99.90
2023-01-02T16:08:16.401Z,99.90
2023-01-02T16:10:50.637Z,99.90
2023-01-02T16:13:45.147Z,99.90
2023-01-02T16:16:15.560Z,99.90
2023-01-02T16:18:44.569Z,99.90
2023-01-02T16:21:13.223Z,99.90
2023-01-02T16:23:40.383Z,99.90
2023-01-02T16:26:12.252Z,99.90
2023-01-02T16:28:40.314Z,99.90
2023-01-02T16:31:17.044Z,99.90
2023-01-02T16:33:45.722Z,99.90
2023-01-02T16:36:15.504Z,99.90
2023-01-02T16:38:54.409Z,99.90
2023-01-02T16:41:42.002Z,99.90
2023-01-02T16:44:12.926Z,99.90
2023-01-02T16:46:40.298Z,99.90
2023-01-02T16:49:07.596Z,99.90
2023-01-02T16:51:34.507Z,99.90
2023-01-02T16:54:01.173Z,99.90
2023-01-02T16:56:27.850Z,99.90
2023-01-02T16:58:54.684Z,99.90
2023-01-02T17:01:22.702Z,99.90
2023-01-02T17:03:49.470Z,99.90
2023-01-02T17:06:18.668Z,99.90
2023-01-02T17:08:45.432Z,99.90
2023-01-02T17:11:14.537Z,99.90
2023-01-02T17:13:41.234Z,99.90
2023-01-02T17:16:07.921Z,99.90
2023-01-02T17:18:34.607Z,99.90
2023-01-02T17:21:01.305Z,99.90
2023-01-02T17:23:27.940Z,99.90
2023-01-02T17:25:54.572Z,99.90
2023-01-02T17:28:21.255Z,99.90
2023-01-02T17:30:51.407Z,99.90
2023-01-02T17:33:18.213Z,99.90
2023-01-02T17:35:45.921Z,99.90
2023-01-02T17:38:12.587Z,99.90
2023-01-02T17:40:39.362Z,99.90
2023-01-02T17:43:06.976Z,99.90
2023-01-02T17:45:34.049Z,99.90
2023-01-02T17:48:07.797Z,99.90
2023-01-02T17:50:36.995Z,99.90
2023-01-02T17:53:06.966Z,99.90
2023-01-02T17:55:33.608Z,99.90
2023-01-02T17:58:03.300Z,99.90
2023-01-02T18:00:30.035Z,99.90
2023-01-02T18:02:56.876Z,99.90
2023-01-02T18:05:23.555Z,99.90
2023-01-02T18:07:50.303Z,99.90
2023-01-02T18:10:20.584Z,99.90
2023-01-02T18:12:49.320Z,99.90
2023-01-02T18:15:17.330Z,99.90
2023-01-02T18:17:44.175Z,99.90
2023-01-02T18:20:15.513Z,99.90
2023-01-02T18:22:48.316Z,99.90
2023-01-02T18:25:19.176Z,99.90
2023-01-02T18:27:46.801Z,99.90
2023-01-02T18:30:18.508Z,99.90
2023-01-02T18:32:46.614Z,99.90
2023-01-02T18:35:37.940Z,99.90
2023-01-02T18:38:06.356Z,99.90
2023-01-02T18:40:34.659Z,99.90
2023-01-02T18:43:20.451Z,99.90
2023-01-02T18:45:50.114Z,99.90
2023-01-02T18:48:17.968Z,99.90
2023-01-02T18:50:46.725Z,99.90
2023-01-02T18:53:20.113Z,99.90
2023-01-02T18:55:47.271Z,99.90
2023-01-02T18:58:32.634Z,99.90
2023-01-02T19:01:00.226Z,99.90
2023-01-02T19:03:28.598Z,99.90
2023-01-02T19:05:55.488Z,99.90
2023-01-02T19:08:25.135Z,99.90
2023-01-02T19:10:54.135Z,99.90
2023-01-02T19:13:20.858Z,99.90
2023-01-02T19:15:47.636Z,99.90
2023-01-02T19:18:14.740Z,99.90
2023-01-02T19:20:45.870Z,99.90
2023-01-02T19:23:21.624Z,99.90
2023-01-02T19:25:48.872Z,99.90
2023-01-02T19:28:18.646Z,99.90
2023-01-02T19:30:45.797Z,99.90
2023-01-02T19:33:27.892Z,99.90
2023-01-02T19:35:59.989Z,99.90
2023-01-02T19:38:28.144Z,99.90
2023-01-02T19:40:55.101Z,99.90
2023-01-02T19:43:21.876Z,99.90
2023-01-02T19:45:49.197Z,99.90
2023-01-02T19:48:18.304Z,99.90
2023-01-02T19:50:45.224Z,99.90
2023-01-02T19:53:11.835Z,99.90
2023-01-02T19:55:38.493Z,99.90
2023-01-02T19:58:05.490Z,99.90
2023-01-02T20:00:32.463Z,99.90
2023-01-02T20:02:59.259Z,99.90
2023-01-02T20:05:27.648Z,99.90
2023-01-02T20:07:54.663Z,99.90
2023-01-02T20:10:22.018Z,99.90
2023-01-02T20:12:48.865Z,99.90
2023-01-02T20:15:17.507Z,99.90
2023-01-02T20:17:44.469Z,99.90
2023-01-02T20:20:13.603Z,99.90
2023-01-02T20:22:42.995Z,99.90
2023-01-02T20:25:12.040Z,99.90
2023-01-02T20:27:39.120Z,99.90
2023-01-02T20:30:07.075Z,99.90
2023-01-02T20:32:33.751Z,99.90
2023-01-02T20:35:00.696Z,99.90
2023-01-02T20:37:27.353Z,99.90
2023-01-02T20:39:55.060Z,99.90
2023-01-02T20:42:22.398Z,99.90
2023-01-02T20:44:50.294Z,99.90
2023-01-02T20:47:17.020Z,99.90
2023-01-02T20:49:43.775Z,99.90
2023-01-02T20:52:10.444Z,99.90
2023-01-02T20:54:37.298Z,99.90
2023-01-02T20:57:04.122Z,99.90
2023-01-02T20:59:30.982Z,99.90
2023-01-02T21:01:57.676Z,99.90
2023-01-02T21:04:34.099Z,99.90
2023-01-02T21:07:03.301Z,99.90
2023-01-02T21:09:30.235Z,99.90
2023-01-02T21:11:56.878Z,99.90
2023-01-02T21:14:23.786Z,99.90
2023-01-02T21:16:50.461Z,99.90
2023-01-02T21:19:17.355Z,99.90
2023-01-02T21:21:44.131Z,99.90
2023-01-02T21:24:10.773Z,99.90
2023-01-02T21:26:37.450Z,99.90
2023-01-02T21:29:05.139Z,99.90
2023-01-02T21:31:33.745Z,99.90
2023-01-02T21:34:00.452Z,99.90
2023-01-02T21:36:27.152Z,99.90
2023-01-02T21:38:53.907Z,99.90
2023-01-02T21:41:39.237Z,99.90
2023-01-02T21:44:05.981Z,99.90
2023-01-02T21:46:32.665Z,99.90
2023-01-02T21:48:59.680Z,99.90
2023-01-02T21:51:32.139Z,99.90
2023-01-02T21:53:59.489Z,99.90
2023-01-02T21:56:26.147Z,99.90
2023-01-02T21:58:52.791Z,99.90
2023-01-02T22:01:19.612Z,99.90
2023-01-02T22:03:46.444Z,99.90
2023-01-02T22:06:13.141Z,99.90
2023-01-02T22:08:39.849Z,99.90
2023-01-02T22:11:25.537Z,99.90
2023-01-02T22:13:52.203Z,99.90
2023-01-02T22:16:18.897Z,99.90
2023-01-02T22:18:46.225Z,99.90
2023-01-02T22:21:14.877Z,99.90
2023-01-02T22:23:41.618Z,99.90
2023-01-02T22:26:08.419Z,99.90
2023-01-02T22:28:35.127Z,99.90
2023-01-02T22:31:01.787Z,99.90
2023-01-02T22:33:28.451Z,99.90
2023-01-02T22:35:55.161Z,99.90
2023-01-02T22:38:21.884Z,99.90
2023-01-02T22:40:48.555Z,99.90
2023-01-02T22:43:20.849Z,99.90
2023-01-02T22:45:51.564Z,99.90
2023-01-02T22:48:23.035Z,99.90
2023-01-02T22:50:50.770Z,99.90
2023-01-02T22:53:27.482Z,99.90
2023-01-02T22:55:54.418Z,99.90
2023-01-02T22:58:21.723Z,99.90
2023-01-02T23:00:50.947Z,99.90
2023-01-02T23:03:17.575Z,99.90
2023-01-02T23:05:44.186Z,99.90
2023-01-02T23:08:12.615Z,99.90
2023-01-02T23:10:39.366Z,99.90
2023-01-02T23:13:06.244Z,99.90
2023-01-02T23:15:33.043Z,99.90
2023-01-02T23:18:18.513Z,99.90
2023-01-02T23:20:45.222Z,99.90
2023-01-02T23:23:11.919Z,99.90
2023-01-02T23:25:39.931Z,99.90
2023-01-02T23:28:06.546Z,99.90
2023-01-02T23:30:33.224Z,99.90
2023-01-02T23:32:59.887Z,99.90
2023-01-02T23:35:26.523Z,99.90
2023-01-02T23:37:53.164Z,99.90
2023-01-02T23:40:19.780Z,99.90
2023-01-02T23:42:46.396Z,99.90
2023-01-02T23:45:13.068Z,99.90
2023-01-02T23:47:39.710Z,99.90
2023-01-02T23:50:06.591Z,99.90
2023-01-02T23:52:33.314Z,99.90
2023-01-02T23:54:59.975Z,99.90
2023-01-02T23:57:26.657Z,99.90
2023-01-02T23:59:53.337Z,99.90
